Flinter Rose — PBUB — position and weather

sailwx.info

Track history (hours):
 
Tides and Currents Weather Stations Pressure Air Temp Water Temp Dewpoint Dewpoint Depression Visibility Wind Speed Wind Dir Waves Ship Positions

Flinter Rose

Last reported at 2017-Apr-25 12:14 UTC. Time now 2017-Apr-27 14:51 UTC.
Position N 40°44' E 029°11'.

Length 101 m; draft 5.3 m.

Type: Cargo ship. MMSI: 246227000.

Date/timePositionNaut miles runAvg speedWind from/ knotsBaromVisibWave heightAir tempDewpointWater temp
2017-Apr-25 12:14N 40°44' E 029°11'310.9
2017-Apr-25 11:58N 40°44' E 029°15'510.8
2017-Apr-25 11:29N 40°45' E 029°21'510.6
2017-Apr-25 10:59N 40°45' E 029°28'5 9.9
2017-Apr-25 10:30N 40°45' E 029°35'  
2017-Apr-22 04:44N 40°46' E 029°35'2 8.9
2017-Apr-22 04:30N 40°45' E 029°34'711.3
2017-Apr-22 03:55N 40°44' E 029°25'4 9.2
2017-Apr-22 03:28N 40°43' E 029°20'510.3
2017-Apr-22 03:00N 40°43' E 029°13'  
Track history (hours):
 
Tides and Currents Weather Stations Pressure Air Temp Water Temp Dewpoint Dewpoint Depression Visibility Wind Speed Wind Dir Waves Ship Positions

Flinter Rose

Last reported at 2017-Apr-25 12:14 UTC. Time now 2017-Apr-27 14:51 UTC.
Position N 40°44' E 029°11'.

Length 101 m; draft 5.3 m.

Type: Cargo ship. MMSI: 246227000.

Date/timePositionNaut miles runAvg speedWind from/ knotsBaromVisibWave heightAir tempDewpointWater temp
2017-Apr-25 12:14N 40°44' E 029°11'310.9
2017-Apr-25 11:58N 40°44' E 029°15'510.8
2017-Apr-25 11:29N 40°45' E 029°21'510.6
2017-Apr-25 10:59N 40°45' E 029°28'5 9.9
2017-Apr-25 10:30N 40°45' E 029°35'  
2017-Apr-22 04:44N 40°46' E 029°35'2 8.9
2017-Apr-22 04:30N 40°45' E 029°34'711.3
2017-Apr-22 03:55N 40°44' E 029°25'4 9.2
2017-Apr-22 03:28N 40°43' E 029°20'510.3
2017-Apr-22 03:00N 40°43' E 029°13'  

Dump ship's entire track history